Time;durP1;ratioP1;P1;durP2;ratioP2;P2;SDS_P1;SDS_P2;PMS_P1;PMS_P2;Temp;Humidity;BMP_temperature;BMP_pressure;BME280_temperature;BME280_humidity;BME280_pressure;Samples;Min_cycle;Max_cycle;Signal;HPM_P1;HPM_P2
2021/05/07 00:01:13;;;;;;;11.65;7.10;;;;;;;8.15;59.89;96694.94;1777190;80;21270;-79
2021/05/07 00:03:41;;;;;;;12.68;7.10;;;;;;;8.12;59.78;96707.84;1760138;81;21550;-79
2021/05/07 00:06:10;;;;;;;11.38;7.00;;;;;;;8.08;59.83;96705.92;1760203;81;21254;-79
2021/05/07 00:08:41;;;;;;;16.23;7.35;;;;;;;8.08;59.93;96703.76;1786427;80;21230;-79
2021/05/07 00:11:15;;;;;;;8.73;6.12;;;;;;;8.05;59.62;96704.84;1769974;80;21266;-78
2021/05/07 00:13:46;;;;;;;11.03;6.80;;;;;;;8.00;59.83;96701.73;1761437;80;21148;-78
2021/05/07 00:16:17;;;;;;;22.20;8.35;;;;;;;8.03;60.04;96706.73;1762580;81;21085;-79
2021/05/07 00:18:45;;;;;;;11.75;7.17;;;;;;;8.02;59.93;96709.03;1760984;81;21148;-78
2021/05/07 00:21:12;;;;;;;10.50;6.72;;;;;;;8.03;59.96;96711.16;1761128;80;21262;-78
2021/05/07 00:23:40;;;;;;;13.48;7.90;;;;;;;8.01;59.78;96708.66;1761643;81;21136;-79
2021/05/07 00:26:07;;;;;;;13.28;8.05;;;;;;;8.02;60.02;96709.03;1776652;80;21124;-79
2021/05/07 00:28:37;;;;;;;12.13;8.00;;;;;;;8.02;60.06;96710.80;1791389;80;21180;-78
2021/05/07 00:31:04;;;;;;;16.10;7.28;;;;;;;8.02;60.04;96700.30;1760753;80;21143;-79
2021/05/07 00:33:32;;;;;;;17.40;7.22;;;;;;;8.02;60.20;96697.67;1784069;80;21574;-78
2021/05/07 00:35:59;;;;;;;8.63;6.42;;;;;;;8.01;60.20;96691.60;1776900;80;21302;-78
2021/05/07 00:38:28;;;;;;;11.68;6.92;;;;;;;8.00;59.89;96695.63;1749869;81;21180;-77
2021/05/07 00:40:56;;;;;;;12.82;6.62;;;;;;;7.95;60.06;96693.36;1744915;82;21644;-79
2021/05/07 00:43:23;;;;;;;10.30;5.42;;;;;;;7.93;60.29;96685.62;1744044;82;21155;-79
2021/05/07 00:45:51;;;;;;;9.25;5.25;;;;;;;7.91;60.20;96680.95;1744609;82;21232;-78
2021/05/07 00:48:21;;;;;;;13.20;5.67;;;;;;;7.86;60.13;96671.75;1680468;85;21175;-79
2021/05/07 00:50:49;;;;;;;11.08;5.55;;;;;;;7.89;60.19;96667.59;1701002;84;21256;-79
2021/05/07 00:53:20;;;;;;;11.43;5.58;;;;;;;7.86;60.42;96658.64;1701498;84;21137;-79
2021/05/07 00:55:47;;;;;;;8.18;5.50;;;;;;;7.82;60.48;96664.59;1755812;81;21535;-79
2021/05/07 00:58:16;;;;;;;8.40;6.10;;;;;;;7.82;60.48;96664.59;1745480;82;21310;-79
2021/05/07 01:00:43;;;;;;;12.45;5.55;;;;;;;7.83;60.23;96681.19;1744448;81;21125;-78
2021/05/07 01:03:12;;;;;;;7.60;5.37;;;;;;;7.83;60.35;96666.77;1752659;81;21141;-80
2021/05/07 01:05:40;;;;;;;9.10;4.92;;;;;;;7.84;60.47;96665.32;1702018;84;21277;-78
2021/05/07 01:08:10;;;;;;;8.80;5.20;;;;;;;7.86;60.36;96659.95;1743796;82;21259;-79
2021/05/07 01:10:41;;;;;;;5.75;4.42;;;;;;;7.88;60.42;96666.77;1760419;81;21133;-79
2021/05/07 01:13:09;;;;;;;7.35;4.40;;;;;;;7.93;60.50;96659.86;1751682;81;21244;-79
2021/05/07 01:15:38;;;;;;;7.33;4.55;;;;;;;7.93;60.54;96655.44;1745507;81;21187;-79
2021/05/07 01:18:05;;;;;;;6.83;4.03;;;;;;;7.97;60.55;96657.34;1682259;84;21125;-77
2021/05/07 01:20:34;;;;;;;7.55;4.50;;;;;;;8.00;60.50;96658.43;1662335;85;21585;-79
2021/05/07 01:23:08;;;;;;;8.70;4.10;;;;;;;8.05;60.52;96643.64;1679750;85;21179;-79
2021/05/07 01:25:40;;;;;;;6.55;4.17;;;;;;;8.05;60.44;96637.90;1683819;84;21159;-78
2021/05/07 01:28:12;;;;;;;6.37;4.62;;;;;;;8.04;60.53;96645.41;1682731;84;21161;-79
2021/05/07 01:30:43;;;;;;;5.80;3.12;;;;;;;8.11;60.74;96642.70;1744689;81;21117;-79
2021/05/07 01:33:13;;;;;;;8.15;4.22;;;;;;;8.19;61.52;96619.77;1752222;81;21133;-78
2021/05/07 01:35:44;;;;;;;5.60;3.77;;;;;;;8.21;61.04;96628.36;1688162;84;21129;-79
2021/05/07 01:38:15;;;;;;;9.68;4.12;;;;;;;8.31;61.19;96628.46;1703779;84;21184;-79
2021/05/07 01:40:46;;;;;;;6.78;4.10;;;;;;;8.41;61.30;96617.59;1752022;81;21128;-79
2021/05/07 01:43:16;;;;;;;6.35;4.15;;;;;;;8.50;61.14;96617.84;1743563;82;22106;-79
2021/05/07 01:45:48;;;;;;;6.75;3.83;;;;;;;8.63;61.22;96624.30;1745030;82;21303;-79
2021/05/07 01:48:18;;;;;;;7.25;4.10;;;;;;;8.73;61.15;96610.29;1746319;81;21161;-79
2021/05/07 01:50:47;;;;;;;5.42;4.05;;;;;;;8.82;60.89;96606.55;1746088;82;21576;-79
2021/05/07 01:53:16;;;;;;;10.20;3.77;;;;;;;8.80;60.92;96608.47;1744055;81;21152;-78
2021/05/07 01:55:47;;;;;;;5.65;4.20;;;;;;;8.91;60.94;96608.44;1745408;81;21543;-78
2021/05/07 01:58:28;;;;;;;11.73;4.30;;;;;;;9.08;60.53;96612.80;1803220;77;22583;-79
2021/05/07 02:00:57;;;;;;;10.68;4.50;;;;;;;9.00;60.38;96607.69;1791685;80;21270;-79
2021/05/07 02:03:26;;;;;;;9.83;4.95;;;;;;;9.04;60.17;96601.23;1794271;80;21169;-79
2021/05/07 02:05:57;;;;;;;7.60;4.62;;;;;;;9.08;60.10;96607.07;1793498;80;21172;-78
2021/05/07 02:08:24;;;;;;;7.30;4.55;;;;;;;9.11;59.93;96604.66;1755579;81;21279;-79
2021/05/07 02:10:52;;;;;;;10.32;4.58;;;;;;;9.13;59.89;96600.13;1773858;81;21185;-80
2021/05/07 02:13:20;;;;;;;8.48;5.15;;;;;;;9.10;59.68;96598.55;1709486;83;21339;-79
2021/05/07 02:15:51;;;;;;;16.80;5.30;;;;;;;9.09;59.56;96583.77;1738409;81;21276;-79
2021/05/07 02:18:22;;;;;;;8.18;5.58;;;;;;;9.09;59.41;96583.77;1703515;83;21116;-79
2021/05/07 02:20:54;;;;;;;13.90;5.70;;;;;;;9.05;59.57;96580.53;1720158;83;21285;-78
2021/05/07 02:23:22;;;;;;;8.23;5.78;;;;;;;9.04;59.49;96593.34;1700620;84;21174;-79
2021/05/07 02:25:50;;;;;;;10.43;6.28;;;;;;;9.04;59.42;96597.29;1730557;82;21578;-78
2021/05/07 02:28:19;;;;;;;9.55;6.30;;;;;;;9.04;59.39;96602.55;1733436;83;21207;-79
2021/05/07 02:30:48;;;;;;;10.15;5.75;;;;;;;9.04;59.38;96599.92;1705225;83;21151;-78
2021/05/07 02:33:16;;;;;;;11.85;5.95;;;;;;;9.04;59.21;96599.06;1721638;83;21133;-79
2021/05/07 02:35:43;;;;;;;15.23;6.70;;;;;;;9.03;59.36;96603.97;1735382;82;21114;-79
2021/05/07 02:38:11;;;;;;;9.90;6.28;;;;;;;9.01;59.50;96598.84;1730911;81;21159;-79
2021/05/07 02:40:39;;;;;;;11.53;5.50;;;;;;;8.99;59.52;96594.68;1726933;81;21578;-78
2021/05/07 02:43:10;;;;;;;10.18;6.45;;;;;;;8.97;59.49;96588.70;1736523;81;21219;-79
2021/05/07 02:45:37;;;;;;;9.48;5.67;;;;;;;8.93;59.70;96591.22;1732713;82;21271;-79
2021/05/07 02:48:05;;;;;;;14.70;6.10;;;;;;;8.93;59.79;96587.28;1711022;82;22608;-79
2021/05/07 02:50:33;;;;;;;9.38;6.00;;;;;;;8.89;59.85;96591.48;1693043;84;21581;-77
2021/05/07 02:53:01;;;;;;;9.50;5.67;;;;;;;8.83;60.32;96594.59;1714509;81;21303;-79
2021/05/07 02:55:29;;;;;;;10.82;5.70;;;;;;;8.81;60.07;96582.55;1732367;82;21747;-78
2021/05/07 02:57:57;;;;;;;14.40;5.78;;;;;;;8.79;60.79;96596.28;1700514;84;21144;-79
2021/05/07 03:00:27;;;;;;;11.50;5.58;;;;;;;8.70;60.43;96596.56;1754652;81;21117;-80
2021/05/07 03:02:54;;;;;;;12.03;5.92;;;;;;;8.69;60.29;96598.84;1728165;82;21144;-78
2021/05/07 03:05:23;;;;;;;11.70;5.85;;;;;;;8.65;60.33;96596.09;1729958;82;21095;-79
2021/05/07 03:07:50;;;;;;;8.60;6.05;;;;;;;8.64;60.40;96599.20;1742161;81;21136;-79
2021/05/07 03:10:17;;;;;;;10.03;5.65;;;;;;;8.68;60.41;96602.41;1729210;82;21578;-79
2021/05/07 03:12:45;;;;;;;11.35;5.83;;;;;;;8.71;60.41;96594.30;1733634;81;21116;-79
2021/05/07 03:15:13;;;;;;;11.22;5.40;;;;;;;8.75;60.20;96613.63;1726148;82;21144;-79
2021/05/07 03:17:40;;;;;;;11.00;5.60;;;;;;;8.73;60.28;96611.60;1727643;82;21135;-79
2021/05/07 03:20:09;;;;;;;12.00;5.35;;;;;;;8.77;60.36;96620.07;1727921;83;21141;-80
2021/05/07 03:22:36;;;;;;;8.35;5.47;;;;;;;8.81;60.25;96620.66;1728463;82;21170;-79
2021/05/07 03:25:05;;;;;;;11.85;5.72;;;;;;;8.84;60.36;96622.55;1725244;83;21562;-79
2021/05/07 03:27:34;;;;;;;12.78;5.53;;;;;;;8.84;60.59;96624.36;1722636;83;21144;-79
2021/05/07 03:30:01;;;;;;;13.32;5.87;;;;;;;8.86;60.57;96618.50;1728825;82;21135;-80
2021/05/07 03:32:28;;;;;;;16.27;6.05;;;;;;;8.84;60.69;96615.16;1729866;83;21154;-79
2021/05/07 03:34:57;;;;;;;11.65;5.50;;;;;;;8.86;60.77;96616.70;1728587;82;21159;-79
2021/05/07 03:37:25;;;;;;;9.90;5.42;;;;;;;8.87;60.45;96601.75;1707377;83;21573;-77
2021/05/07 03:39:53;;;;;;;13.53;5.70;;;;;;;8.82;60.77;96613.12;1726121;83;21131;-79
2021/05/07 03:42:20;;;;;;;9.80;5.37;;;;;;;8.85;61.15;96615.52;1727517;82;21570;-78
2021/05/07 03:44:48;;;;;;;13.58;5.20;;;;;;;8.91;61.65;96609.75;1715500;82;21144;-77
2021/05/07 03:47:16;;;;;;;14.43;5.40;;;;;;;8.94;61.86;96614.77;1726949;82;21199;-79
2021/05/07 03:49:45;;;;;;;11.00;5.87;;;;;;;8.98;62.50;96601.72;1707922;83;21538;-79
2021/05/07 03:52:12;;;;;;;13.03;6.00;;;;;;;9.02;62.55;96601.83;1727234;82;21132;-79
2021/05/07 03:54:40;;;;;;;11.70;5.33;;;;;;;9.13;62.79;96610.14;1728194;82;21141;-79
2021/05/07 03:57:09;;;;;;;12.85;5.75;;;;;;;9.25;62.94;96611.41;1726840;82;21204;-80
2021/05/07 03:59:36;;;;;;;10.70;5.47;;;;;;;9.31;62.92;96610.44;1731992;80;21318;-78
2021/05/07 04:02:04;;;;;;;11.20;5.45;;;;;;;9.41;62.89;96608.35;1735765;82;21144;-77
2021/05/07 04:04:33;;;;;;;15.35;5.72;;;;;;;9.52;62.92;96607.80;1751432;80;21169;-79
2021/05/07 04:07:01;;;;;;;15.85;6.75;;;;;;;9.62;62.95;96609.16;1754742;82;21152;-78
2021/05/07 04:09:41;;;;;;;12.68;6.35;;;;;;;9.52;62.41;96610.43;1745889;80;21546;-78
2021/05/07 04:12:20;;;;;;;9.83;6.35;;;;;;;9.52;62.49;96611.75;1716845;82;21174;-79
2021/05/07 04:14:46;;;;;;;16.95;6.87;;;;;;;9.61;62.58;96610.62;1785111;80;21235;-79
2021/05/07 04:17:13;;;;;;;14.93;6.22;;;;;;;9.65;62.31;96609.41;1765332;80;21144;-79
2021/05/07 04:19:41;;;;;;;13.75;6.45;;;;;;;9.66;61.97;96615.00;1759747;80;21105;-79
2021/05/07 04:22:08;;;;;;;11.45;6.83;;;;;;;9.68;62.05;96611.77;1726114;82;21160;-79
2021/05/07 04:24:37;;;;;;;14.03;6.55;;;;;;;9.75;61.96;96612.09;1719683;82;21124;-78
2021/05/07 04:27:05;;;;;;;9.43;6.00;;;;;;;9.85;61.69;96613.80;1769154;80;21566;-79
2021/05/07 04:29:32;;;;;;;12.07;5.95;;;;;;;9.94;61.39;96614.83;1735375;82;21139;-78
2021/05/07 04:32:02;;;;;;;9.85;4.97;;;;;;;9.95;61.09;96611.70;1732732;82;21114;-79
2021/05/07 04:34:30;;;;;;;13.72;6.03;;;;;;;9.93;60.82;96605.75;1707013;82;22086;-79
2021/05/07 04:36:58;;;;;;;10.55;6.28;;;;;;;9.86;60.81;96606.75;1706156;82;21158;-79
2021/05/07 04:39:25;;;;;;;12.45;6.25;;;;;;;9.92;60.76;96604.90;1739839;82;21109;-80
2021/05/07 04:41:53;;;;;;;11.25;5.75;;;;;;;10.04;60.75;96602.19;1743891;80;21578;-79
2021/05/07 04:44:21;;;;;;;12.85;5.40;;;;;;;10.04;60.21;96599.55;1754378;82;21605;-78
2021/05/07 04:46:48;;;;;;;9.68;5.65;;;;;;;10.02;59.98;96598.84;1774259;80;21128;-78
2021/05/07 04:49:15;;;;;;;16.02;6.08;;;;;;;10.10;59.94;96601.65;1741339;80;21128;-79
2021/05/07 04:51:43;;;;;;;8.13;4.17;;;;;;;10.20;59.88;96614.38;1739236;82;21549;-79
2021/05/07 04:54:10;;;;;;;12.80;4.53;;;;;;;10.30;59.07;96605.20;1713719;84;21195;-77
2021/05/07 04:56:37;;;;;;;10.28;5.90;;;;;;;10.22;59.02;96602.37;1751718;80;21184;-79
2021/05/07 04:59:04;;;;;;;10.80;5.90;;;;;;;10.20;59.17;96606.47;1745306;82;21124;-79
2021/05/07 05:01:31;;;;;;;20.17;7.47;;;;;;;10.28;58.97;96592.64;1748573;82;21141;-78
2021/05/07 05:03:58;;;;;;;13.10;5.90;;;;;;;10.36;58.96;96586.69;1737735;80;21140;-79
2021/05/07 05:06:26;;;;;;;9.60;6.03;;;;;;;10.49;58.85;96593.09;1730662;82;21150;-79
2021/05/07 05:08:54;;;;;;;6.72;3.92;;;;;;;10.60;58.23;96588.53;1732753;82;21123;-79
2021/05/07 05:11:21;;;;;;;12.55;5.53;;;;;;;10.76;58.16;96589.80;1766540;80;21527;-79
2021/05/07 05:13:49;;;;;;;7.58;3.72;;;;;;;10.77;58.04;96586.19;1770662;80;21242;-78
2021/05/07 05:16:19;;;;;;;11.30;5.53;;;;;;;10.86;57.91;96580.56;1746361;80;21579;-79
2021/05/07 05:18:46;;;;;;;20.68;7.95;;;;;;;10.98;57.94;96582.61;1742915;82;21098;-78
2021/05/07 05:21:13;;;;;;;10.63;6.15;;;;;;;11.14;57.59;96571.01;1749955;80;21136;-80
2021/05/07 05:23:43;;;;;;;14.93;6.90;;;;;;;11.49;56.96;96592.00;1761214;80;21120;-79
2021/05/07 05:26:10;;;;;;;13.60;5.22;;;;;;;11.77;56.89;96593.91;1784074;80;21589;-81
2021/05/07 05:28:37;;;;;;;12.03;6.37;;;;;;;12.05;56.46;96588.20;1749343;82;21117;-79
2021/05/07 05:31:05;;;;;;;13.55;6.25;;;;;;;12.21;56.26;96582.30;1752765;80;21140;-84
2021/05/07 05:33:32;;;;;;;11.53;5.90;;;;;;;12.30;55.59;96574.82;1753845;80;21122;-81
2021/05/07 05:36:01;;;;;;;19.73;7.00;;;;;;;12.12;54.80;96575.25;1730768;80;21156;-79
2021/05/07 05:38:28;;;;;;;15.95;6.50;;;;;;;12.01;55.52;96574.96;1764526;80;21110;-80
2021/05/07 05:40:55;;;;;;;15.83;5.42;;;;;;;12.03;55.67;96566.38;1742578;82;21143;-80
2021/05/07 05:43:23;;;;;;;14.13;5.92;;;;;;;12.09;55.48;96567.14;1749632;80;21124;-80
2021/05/07 05:45:50;;;;;;;10.43;5.83;;;;;;;12.05;55.32;96568.39;1748815;80;21164;-79
2021/05/07 05:48:18;;;;;;;13.00;5.67;;;;;;;11.96;54.53;96559.98;1750720;82;21121;-80
2021/05/07 05:50:49;;;;;;;11.70;5.75;;;;;;;11.96;54.04;96563.48;1747552;82;21192;-79
2021/05/07 05:53:17;;;;;;;13.58;6.72;;;;;;;11.99;54.41;96559.23;1743423;82;21148;-79
2021/05/07 05:55:45;;;;;;;17.95;6.35;;;;;;;12.09;54.10;96553.93;1689638;83;21152;-78
2021/05/07 05:58:15;;;;;;;11.55;5.30;;;;;;;12.26;54.27;96552.30;1730503;80;21104;-79
2021/05/07 06:00:43;;;;;;;13.80;5.45;;;;;;;12.40;53.58;96554.94;1756193;81;21097;-79
2021/05/07 06:03:11;;;;;;;6.42;4.40;;;;;;;12.32;53.57;96550.88;1724562;81;21161;-79
2021/05/07 06:05:38;;;;;;;9.98;5.05;;;;;;;12.42;53.15;96551.66;1738746;82;21526;-79
2021/05/07 06:08:05;;;;;;;10.58;5.15;;;;;;;12.52;53.17;96548.13;1746199;82;21152;-78
2021/05/07 06:10:33;;;;;;;21.82;6.85;;;;;;;12.58;53.01;96550.16;1718738;83;21184;-81
2021/05/07 06:13:00;;;;;;;10.35;5.08;;;;;;;12.62;53.29;96551.04;1741862;82;21164;-79
2021/05/07 06:15:28;;;;;;;14.45;6.40;;;;;;;12.78;52.95;96552.20;1737605;82;21190;-81
2021/05/07 06:17:55;;;;;;;11.70;6.55;;;;;;;12.78;52.79;96566.24;1745960;82;21175;-81
2021/05/07 06:20:23;;;;;;;12.73;5.70;;;;;;;12.88;52.88;96558.25;1746934;82;21176;-81
2021/05/07 06:22:50;;;;;;;13.55;5.47;;;;;;;12.88;52.63;96552.97;1742190;82;21130;-80
2021/05/07 06:25:21;;;;;;;18.75;5.87;;;;;;;12.85;52.26;96560.38;1738420;82;21123;-83
2021/05/07 06:27:47;;;;;;;12.13;4.85;;;;;;;12.82;52.61;96564.13;1694532;84;21177;-77
2021/05/07 06:30:15;;;;;;;20.37;7.33;;;;;;;12.92;52.55;96556.14;1688242;85;21577;-79
2021/05/07 06:32:43;;;;;;;19.45;7.03;;;;;;;13.05;52.49;96564.51;1692153;85;21294;-81
2021/05/07 06:35:11;;;;;;;22.80;7.65;;;;;;;13.13;52.46;96561.93;1679691;85;21590;-81
2021/05/07 06:37:41;;;;;;;14.55;7.33;;;;;;;13.25;52.22;96555.08;1716268;82;21527;-80
2021/05/07 06:40:11;;;;;;;13.30;5.37;;;;;;;13.38;51.88;96558.17;1752153;81;21158;-81
2021/05/07 06:42:38;;;;;;;18.92;5.92;;;;;;;13.52;51.96;96555.97;1748005;82;21116;-79
2021/05/07 06:45:10;;;;;;;16.05;7.70;;;;;;;13.68;52.08;96552.60;1747258;82;21586;-79
2021/05/07 06:47:38;;;;;;;17.48;5.70;;;;;;;13.66;51.95;96548.80;1740368;82;21314;-78
2021/05/07 06:50:09;;;;;;;13.00;6.80;;;;;;;13.75;51.76;96539.06;1724997;81;21128;-78
2021/05/07 06:52:36;;;;;;;7.70;4.95;;;;;;;13.70;52.00;96536.07;1718533;83;21564;-80
2021/05/07 06:55:07;;;;;;;13.22;5.92;;;;;;;13.77;51.88;96530.98;1719004;81;21128;-78
2021/05/07 06:57:35;;;;;;;17.02;5.53;;;;;;;13.78;52.19;96524.70;1718776;82;21148;-77
2021/05/07 07:00:06;;;;;;;16.30;6.22;;;;;;;13.93;52.14;96523.59;1724099;83;21160;-78
2021/05/07 07:02:34;;;;;;;10.80;5.65;;;;;;;14.01;52.12;96519.17;1727643;81;21302;-79
2021/05/07 07:05:03;;;;;;;11.08;5.28;;;;;;;13.99;52.02;96519.82;1730618;81;21124;-80
2021/05/07 07:07:31;;;;;;;14.18;5.58;;;;;;;13.94;52.22;96518.63;1722350;83;21140;-77
2021/05/07 07:10:00;;;;;;;14.35;4.87;;;;;;;13.87;52.29;96514.48;1737256;82;21146;-78
2021/05/07 07:12:27;;;;;;;23.75;5.40;;;;;;;13.84;52.34;96509.49;1746483;82;21105;-80
2021/05/07 07:14:54;;;;;;;7.42;4.30;;;;;;;13.73;52.51;96508.77;1733316;82;21160;-79
2021/05/07 07:17:22;;;;;;;15.08;4.58;;;;;;;13.69;52.63;96515.87;1740914;81;21543;-79
2021/05/07 07:19:49;;;;;;;8.38;3.42;;;;;;;13.69;52.77;96515.87;1731287;82;21160;-77
2021/05/07 07:22:18;;;;;;;12.40;4.12;;;;;;;13.69;52.84;96506.59;1722602;82;21110;-79
2021/05/07 07:24:47;;;;;;;17.25;4.72;;;;;;;13.66;53.04;96502.45;1722654;82;21137;-77
2021/05/07 07:27:15;;;;;;;15.60;4.62;;;;;;;13.65;53.29;96501.27;1725062;81;21148;-79
2021/05/07 07:29:44;;;;;;;13.70;5.30;;;;;;;13.61;53.26;96466.33;1746658;82;21237;-80
2021/05/07 07:32:11;;;;;;;8.43;4.47;;;;;;;13.90;53.38;96483.20;1727006;81;21124;-83
2021/05/07 07:34:40;;;;;;;14.60;5.47;;;;;;;14.03;53.07;96484.56;1723907;83;21148;-79
2021/05/07 07:37:07;;;;;;;19.98;4.70;;;;;;;14.11;53.04;96489.06;1723945;83;21239;-79
2021/05/07 07:39:35;;;;;;;7.78;4.25;;;;;;;14.18;52.90;96481.65;1739050;82;21574;-80
2021/05/07 07:42:03;;;;;;;13.55;4.47;;;;;;;14.23;53.01;96479.00;1743990;82;21199;-79
2021/05/07 07:44:30;;;;;;;16.15;4.83;;;;;;;14.29;52.82;96478.38;1743551;81;21108;-79
2021/05/07 07:46:58;;;;;;;10.28;4.22;;;;;;;14.33;52.82;96482.34;1761432;81;21585;-82
2021/05/07 07:49:26;;;;;;;10.53;3.08;;;;;;;14.33;52.68;96475.23;1744304;82;21156;-77
2021/05/07 07:51:58;;;;;;;15.98;4.15;;;;;;;14.33;52.64;96480.54;1730030;83;21720;-87
2021/05/07 07:54:23;;;;;;;21.52;5.17;;;;;;;14.31;52.70;96473.23;1730636;82;21632;-80
2021/05/07 07:56:51;;;;;;;9.70;3.67;;;;;;;14.24;52.87;96474.03;1737018;81;21148;-77
2021/05/07 07:59:18;;;;;;;14.85;4.40;;;;;;;14.23;52.90;96474.55;1733225;81;21589;-81
2021/05/07 08:01:46;;;;;;;9.78;3.50;;;;;;;14.16;53.15;96478.33;1723959;82;21288;-85
2021/05/07 08:04:16;;;;;;;11.35;4.25;;;;;;;14.13;53.00;96479.14;1704174;84;21144;-81
2021/05/07 08:06:43;;;;;;;11.10;4.03;;;;;;;14.13;52.96;96489.23;1755821;81;21100;-78
2021/05/07 08:09:10;;;;;;;17.05;3.80;;;;;;;14.15;53.05;96487.27;1738543;82;21387;-80
2021/05/07 08:11:37;;;;;;;8.70;4.35;;;;;;;14.16;53.08;96488.08;1739920;81;21144;-80
2021/05/07 08:14:05;;;;;;;15.80;4.20;;;;;;;14.17;53.11;96492.39;1748739;81;21143;-79
2021/05/07 08:16:34;;;;;;;13.25;4.42;;;;;;;14.20;53.30;96493.41;1749492;81;21246;-77
2021/05/07 08:19:01;;;;;;;15.93;4.50;;;;;;;14.21;53.59;96493.23;1748178;82;21582;-78
2021/05/07 08:21:29;;;;;;;7.83;3.40;;;;;;;14.23;53.66;96495.75;1741047;82;21136;-78
2021/05/07 08:23:59;;;;;;;13.95;4.47;;;;;;;14.26;53.87;96499.89;1740960;82;21206;-80
2021/05/07 08:26:26;;;;;;;13.80;5.65;;;;;;;14.20;53.96;96504.01;1728725;81;21581;-82
2021/05/07 08:28:53;;;;;;;16.62;4.70;;;;;;;14.19;54.10;96499.22;1724780;80;21098;-79
2021/05/07 08:31:21;;;;;;;9.23;3.62;;;;;;;14.17;54.16;96506.97;1682638;83;21150;-78
2021/05/07 08:33:48;;;;;;;10.80;4.22;;;;;;;14.15;54.44;96501.84;1736299;82;21579;-82
2021/05/07 08:36:15;;;;;;;8.20;4.45;;;;;;;14.13;54.62;96498.52;1746364;82;21185;-80
2021/05/07 08:38:42;;;;;;;13.75;3.30;;;;;;;14.13;55.06;96498.52;1752997;82;21608;-80
2021/05/07 08:41:10;;;;;;;15.80;4.35;;;;;;;14.18;54.86;96497.55;1753127;81;21155;-79
2021/05/07 08:43:37;;;;;;;8.25;2.70;;;;;;;14.15;55.19;96491.23;1741342;81;21180;-80
2021/05/07 08:46:06;;;;;;;15.05;4.65;;;;;;;14.12;55.52;96496.03;1718354;83;21188;-80
2021/05/07 08:48:37;;;;;;;11.60;3.58;;;;;;;14.04;55.53;96500.80;1752777;81;22296;-79
2021/05/07 08:51:06;;;;;;;10.68;4.08;;;;;;;14.01;55.55;96504.60;1751475;81;21532;-78
2021/05/07 08:53:34;;;;;;;9.33;4.40;;;;;;;14.08;55.31;96509.25;1741835;82;21132;-80
2021/05/07 08:56:04;;;;;;;9.40;3.62;;;;;;;14.14;55.27;96504.66;1746417;81;21176;-78
2021/05/07 08:58:32;;;;;;;11.10;4.00;;;;;;;14.10;55.12;96499.33;1754270;81;21181;-79
2021/05/07 09:01:01;;;;;;;17.67;4.75;;;;;;;14.11;55.18;96498.34;1774832;81;21180;-78
2021/05/07 09:03:45;;;;;;;10.82;4.20;;;;;;;14.14;55.17;96492.73;1757714;81;21622;-79
2021/05/07 09:06:19;;;;;;;13.48;4.17;;;;;;;14.22;55.15;96486.13;1734003;81;21181;-79
2021/05/07 09:08:48;;;;;;;14.70;4.12;;;;;;;14.37;55.00;96487.16;1758473;81;21232;-77
2021/05/07 09:11:18;;;;;;;19.90;4.55;;;;;;;14.49;54.87;96493.48;1745407;82;21614;-78
2021/05/07 09:13:45;;;;;;;12.33;4.28;;;;;;;14.52;54.77;96485.22;1740769;82;21159;-82
2021/05/07 09:16:13;;;;;;;15.65;4.87;;;;;;;14.58;54.77;96490.34;1723539;83;21168;-81
2021/05/07 09:18:46;;;;;;;8.78;4.08;;;;;;;14.67;54.65;96487.58;1744764;81;21139;-80
2021/05/07 09:21:14;;;;;;;9.23;4.35;;;;;;;14.77;54.50;96485.27;1747793;81;21185;-81
2021/05/07 09:23:47;;;;;;;21.07;4.25;;;;;;;14.83;54.35;96483.27;1718060;83;21152;-81
2021/05/07 09:26:15;;;;;;;14.70;4.12;;;;;;;14.92;54.29;96481.47;1713334;81;21152;-81
2021/05/07 09:31:39;;;;;;;17.20;4.40;;;;;;;15.18;54.25;96469.33;1823293;77;23150;-89
2021/05/07 09:34:07;;;;;;;16.30;4.05;;;;;;;15.25;54.16;96469.49;1826892;78;22320;-87
2021/05/07 09:36:34;;;;;;;11.33;3.62;;;;;;;15.42;54.13;96474.28;1807813;78;21555;-85
2021/05/07 09:39:03;;;;;;;7.65;2.85;;;;;;;15.60;53.67;96470.08;1795294;80;21145;-87
2021/05/07 09:41:47;;;;;;;5.33;2.17;;;;;;;15.78;53.47;96470.69;1798905;78;21144;-86
2021/05/07 09:44:26;;;;;;;9.53;2.62;;;;;;;15.97;52.83;96467.84;1828518;78;21167;-87
2021/05/07 09:46:55;;;;;;;5.67;2.37;;;;;;;16.16;52.60;96461.26;1811405;78;21146;-87
2021/05/07 09:49:28;;;;;;;4.40;2.05;;;;;;;16.37;52.13;96467.31;1796179;80;21194;-85
2021/05/07 09:51:58;;;;;;;4.60;1.75;;;;;;;16.53;51.47;96467.20;1802155;78;21559;-86
2021/05/07 09:54:26;;;;;;;3.22;1.60;;;;;;;16.70;50.93;96455.94;1820623;78;21522;-84
2021/05/07 09:56:57;;;;;;;4.00;2.00;;;;;;;16.88;50.35;96453.98;1825478;78;21250;-82
2021/05/07 09:59:25;;;;;;;3.50;1.52;;;;;;;17.06;50.10;96455.05;1814126;78;21143;-84
2021/05/07 10:01:54;;;;;;;3.55;1.90;;;;;;;17.32;49.43;96450.62;1802086;78;21154;-85
2021/05/07 10:04:21;;;;;;;3.20;1.90;;;;;;;17.55;49.12;96447.07;1811442;78;21569;-85
2021/05/07 10:06:49;;;;;;;5.97;2.08;;;;;;;17.75;48.45;96434.86;1801939;78;21125;-87
2021/05/07 10:09:26;;;;;;;7.33;2.10;;;;;;;17.86;47.58;96439.40;1798035;78;21204;-84
2021/05/07 10:11:55;;;;;;;3.35;1.70;;;;;;;17.92;47.70;96435.98;1795898;78;21129;-82
2021/05/07 10:14:24;;;;;;;2.62;1.52;;;;;;;17.96;47.19;96430.61;1799351;78;21632;-81
2021/05/07 10:16:51;;;;;;;2.95;1.70;;;;;;;18.04;47.16;96425.69;1800843;78;21131;-82
2021/05/07 10:19:19;;;;;;;3.87;2.30;;;;;;;18.10;46.93;96427.59;1824904;78;21250;-81
2021/05/07 10:21:48;;;;;;;5.92;2.00;;;;;;;18.18;47.13;96430.19;1805669;78;21127;-80
2021/05/07 10:24:19;;;;;;;5.28;2.27;;;;;;;18.30;46.65;96426.52;1813464;78;21106;-81
2021/05/07 10:26:52;;;;;;;4.35;2.05;;;;;;;18.42;46.66;96434.31;1807130;78;21129;-80
2021/05/07 10:29:25;;;;;;;8.20;3.55;;;;;;;18.55;45.79;96413.64;1803107;78;21121;-79
2021/05/07 10:32:02;;;;;;;8.38;1.80;;;;;;;18.68;45.47;96410.27;1779449;79;23094;-81
2021/05/07 10:34:30;;;;;;;3.95;1.92;;;;;;;18.68;45.69;96408.09;1753711;82;21116;-82
2021/05/07 10:37:13;;;;;;;5.65;2.15;;;;;;;18.73;45.18;96409.17;1753623;82;21152;-81
2021/05/07 10:39:56;;;;;;;5.00;2.67;;;;;;;18.72;45.05;96407.52;1753620;82;21159;-81
2021/05/07 10:42:24;;;;;;;6.05;2.95;;;;;;;18.69;44.71;96410.59;1753957;82;21163;-81
2021/05/07 10:44:53;;;;;;;3.60;2.10;;;;;;;18.63;44.88;96401.99;1753679;82;21140;-81
2021/05/07 10:47:35;;;;;;;6.90;2.30;;;;;;;18.57;44.99;96402.77;1753804;82;21163;-81
2021/05/07 10:50:16;;;;;;;7.25;2.42;;;;;;;18.54;45.02;96401.31;1753595;82;21593;-80
2021/05/07 10:52:44;;;;;;;2.55;1.80;;;;;;;18.49;45.03;96410.38;1746188;82;21206;-81
2021/05/07 10:55:14;;;;;;;6.12;2.22;;;;;;;18.47;44.96;96400.92;1724036;83;21294;-80
2021/05/07 10:57:41;;;;;;;6.35;1.77;;;;;;;18.42;45.01;96397.48;1723813;83;21148;-81
2021/05/07 11:00:15;;;;;;;7.83;2.30;;;;;;;18.40;44.88;96395.02;1723902;83;21689;-82
2021/05/07 11:02:48;;;;;;;4.90;2.02;;;;;;;18.31;45.00;96393.48;1723848;83;21661;-82
2021/05/07 11:05:46;;;;;;;3.75;2.25;;;;;;;18.32;45.14;96400.97;1723880;83;21152;-82
2021/05/07 11:08:15;;;;;;;2.92;1.75;;;;;;;18.28;44.89;96394.38;1723921;83;21691;-83
2021/05/07 11:10:47;;;;;;;5.47;1.77;;;;;;;18.30;45.04;96394.50;1722150;82;21549;-79
2021/05/07 11:13:25;;;;;;;4.05;1.92;;;;;;;18.29;45.07;96401.34;1712346;82;21672;-79
2021/05/07 11:15:59;;;;;;;5.40;2.72;;;;;;;18.28;45.01;96400.53;1716840;83;21534;-80
2021/05/07 11:18:34;;;;;;;10.00;2.20;;;;;;;18.28;44.98;96402.38;1712569;83;21143;-80
2021/05/07 11:21:12;;;;;;;4.75;2.12;;;;;;;18.29;45.00;96397.34;1697174;83;21167;-81
2021/05/07 11:23:42;;;;;;;4.95;1.85;;;;;;;18.31;45.03;96393.48;1723431;83;21245;-82
2021/05/07 11:26:09;;;;;;;3.55;1.77;;;;;;;18.35;45.00;96392.60;1701903;83;21167;-81
2021/05/07 11:28:40;;;;;;;5.28;1.92;;;;;;;18.37;44.98;96394.06;1711590;83;21135;-83
2021/05/07 11:31:08;;;;;;;5.80;2.08;;;;;;;18.39;44.91;96388.03;1724056;82;21187;-80
2021/05/07 11:33:37;;;;;;;5.78;2.02;;;;;;;18.44;44.93;96387.95;1704081;83;21163;-81
2021/05/07 11:36:14;;;;;;;5.17;2.70;;;;;;;18.48;44.93;96394.57;1694081;84;21141;-80
2021/05/07 11:38:42;;;;;;;5.67;2.30;;;;;;;18.52;44.82;96394.49;1712999;83;21542;-82
2021/05/07 11:41:25;;;;;;;4.37;2.27;;;;;;;18.49;44.25;96392.22;1722922;83;21130;-80
2021/05/07 11:43:54;;;;;;;7.47;2.62;;;;;;;18.46;44.81;96388.59;1695356;85;21120;-82